createdAt,value
2022-08-22T00:02:56.787Z,10.10
2022-08-22T00:02:59.525Z,8.50
2022-08-22T00:13:39.622Z,8.50
2022-08-22T00:16:17.532Z,10.10
2022-08-22T00:18:55.484Z,10.70
2022-08-22T00:21:33.036Z,7.60
2022-08-22T00:24:23.540Z,10.00
2022-08-22T00:27:03.877Z,8.60
2022-08-22T00:29:43.450Z,9.00
2022-08-22T00:32:41.263Z,9.00
2022-08-22T00:35:20.074Z,11.20
2022-08-22T00:38:54.299Z,7.90
2022-08-22T00:42:29.562Z,8.80
2022-08-22T00:45:26.601Z,11.60
2022-08-22T00:48:09.875Z,14.60
2022-08-22T00:51:10.361Z,10.00
2022-08-22T00:54:17.490Z,10.70
2022-08-22T00:57:03.413Z,8.70
2022-08-22T01:00:08.893Z,9.10
2022-08-22T01:02:59.518Z,14.20
2022-08-22T01:05:47.841Z,9.00
2022-08-22T01:08:32.493Z,7.90
2022-08-22T01:11:23.458Z,8.90
2022-08-22T01:14:08.494Z,9.60
2022-08-22T01:17:09.266Z,8.20
2022-08-22T01:20:38.283Z,9.10
2022-08-22T01:23:37.736Z,8.90
2022-08-22T01:26:57.444Z,9.40
2022-08-22T01:30:08.843Z,9.30
2022-08-22T01:33:16.238Z,8.50
2022-08-22T01:36:04.795Z,7.20
2022-08-22T01:38:53.233Z,9.40
2022-08-22T01:42:02.832Z,8.60
2022-08-22T01:45:04.542Z,9.10
2022-08-22T01:47:49.735Z,9.60
2022-08-22T01:50:44.097Z,7.40
2022-08-22T01:53:25.946Z,7.70
2022-08-22T01:56:06.416Z,8.30
2022-08-22T01:58:47.234Z,8.70
2022-08-22T02:01:28.279Z,7.80
2022-08-22T02:04:21.567Z,8.70
2022-08-22T02:07:07.574Z,8.00
2022-08-22T02:13:25.670Z,9.00
2022-08-22T02:14:22.727Z,7.90
2022-08-22T02:18:23.348Z,7.50
2022-08-22T02:21:24.079Z,8.60
2022-08-22T02:24:01.641Z,9.20
2022-08-22T02:26:45.930Z,7.80
2022-08-22T02:29:23.051Z,7.60
2022-08-22T02:32:04.929Z,6.60
2022-08-22T02:34:49.498Z,6.80
2022-08-22T02:37:35.157Z,7.70
2022-08-22T02:40:19.613Z,7.40
2022-08-22T02:43:04.128Z,7.60
2022-08-22T02:45:41.960Z,9.50
2022-08-22T02:48:32.163Z,9.20
2022-08-22T02:51:11.855Z,6.40
2022-08-22T02:53:55.776Z,8.40
2022-08-22T02:56:34.498Z,8.20
2022-08-22T02:59:22.871Z,6.30
2022-08-22T03:01:53.603Z,8.00
2022-08-22T03:04:54.277Z,7.50
2022-08-22T03:07:44.813Z,6.30
2022-08-22T03:10:25.655Z,8.70
2022-08-22T03:13:21.718Z,8.50
2022-08-22T03:16:04.732Z,9.70
2022-08-22T03:18:53.536Z,7.70
2022-08-22T03:21:34.046Z,6.80
2022-08-22T03:24:20.476Z,9.30
2022-08-22T03:27:02.533Z,6.60
2022-08-22T03:29:38.114Z,7.50
2022-08-22T03:32:14.991Z,8.40
2022-08-22T03:35:03.406Z,7.70
2022-08-22T03:37:45.017Z,9.50
2022-08-22T03:40:33.184Z,8.10
2022-08-22T03:44:04.751Z,7.90
2022-08-22T03:47:17.739Z,6.10
2022-08-22T03:50:30.654Z,6.80
2022-08-22T03:53:37.136Z,6.60
2022-08-22T03:57:08.485Z,8.00
2022-08-22T04:00:06.309Z,7.90
2022-08-22T04:03:25.284Z,10.30
2022-08-22T04:06:34.942Z,7.30
2022-08-22T04:09:29.301Z,10.90
2022-08-22T04:12:23.042Z,7.10
2022-08-22T04:15:42.197Z,7.60
2022-08-22T04:18:41.917Z,6.60
2022-08-22T04:21:27.181Z,8.10
2022-08-22T04:24:21.992Z,8.70
2022-08-22T04:27:19.213Z,8.60
2022-08-22T04:31:41.096Z,8.60
2022-08-22T04:34:11.822Z,8.90
2022-08-22T04:36:52.547Z,8.70
2022-08-22T04:39:30.017Z,10.40
2022-08-22T04:42:31.075Z,13.00
2022-08-22T04:45:11.684Z,9.80
2022-08-22T04:47:54.183Z,8.60
2022-08-22T04:50:30.244Z,10.60
2022-08-22T04:53:26.408Z,9.50
2022-08-22T04:56:13.344Z,9.10
2022-08-22T04:58:51.045Z,8.50
2022-08-22T05:01:25.152Z,8.80
2022-08-22T05:04:00.509Z,8.80
2022-08-22T05:06:33.696Z,8.30
2022-08-22T05:09:14.169Z,11.40
2022-08-22T05:11:52.055Z,10.00
2022-08-22T05:14:27.939Z,8.20
2022-08-22T05:16:59.462Z,9.90
2022-08-22T05:19:34.643Z,10.90
2022-08-22T05:22:06.506Z,9.40
2022-08-22T05:24:50.414Z,10.30
2022-08-22T05:27:24.522Z,7.50
2022-08-22T05:30:01.878Z,9.40
2022-08-22T05:32:40.959Z,10.00
2022-08-22T05:35:19.456Z,10.80
2022-08-22T05:37:55.944Z,10.50
2022-08-22T05:40:37.873Z,10.00
2022-08-22T05:43:12.583Z,14.80
2022-08-22T05:45:47.181Z,11.30
2022-08-22T05:48:20.320Z,7.90
2022-08-22T05:50:56.744Z,9.70
2022-08-22T05:53:37.819Z,7.80
2022-08-22T05:56:13.058Z,10.20
2022-08-22T05:58:59.580Z,10.80
2022-08-22T06:02:13.228Z,12.20
2022-08-22T06:05:05.011Z,10.50
2022-08-22T06:07:43.411Z,22.20
2022-08-22T06:10:24.126Z,20.10
2022-08-22T06:13:01.409Z,18.60
2022-08-22T06:15:39.546Z,17.00
2022-08-22T06:18:14.481Z,19.00
2022-08-22T06:20:47.939Z,20.10
2022-08-22T06:23:26.420Z,14.10
2022-08-22T06:26:00.071Z,15.60
2022-08-22T06:28:54.734Z,16.20
2022-08-22T06:31:35.184Z,15.50
2022-08-22T06:34:11.685Z,13.40
2022-08-22T06:36:46.002Z,16.30
2022-08-22T06:39:22.507Z,14.50
2022-08-22T06:41:57.907Z,15.60
2022-08-22T06:44:31.598Z,13.50
2022-08-22T06:47:08.082Z,12.20
2022-08-22T06:49:42.996Z,10.60
2022-08-22T06:52:21.394Z,11.90
2022-08-22T06:54:59.808Z,14.90
2022-08-22T06:57:38.055Z,14.90
2022-08-22T07:00:13.027Z,14.90
2022-08-22T07:02:57.963Z,11.20
2022-08-22T07:05:43.024Z,10.60
2022-08-22T07:08:38.878Z,11.70
2022-08-22T07:11:42.501Z,10.80
2022-08-22T07:14:20.183Z,12.10
2022-08-22T07:17:11.731Z,14.60
2022-08-22T07:20:10.946Z,11.60
2022-08-22T07:22:54.338Z,14.10
2022-08-22T07:25:30.416Z,14.80
2022-08-22T07:28:36.943Z,12.40
2022-08-22T07:31:37.515Z,12.50
2022-08-22T07:34:37.334Z,13.10
2022-08-22T07:37:18.120Z,11.90
2022-08-22T07:39:56.675Z,16.60
2022-08-22T07:42:40.767Z,14.20
2022-08-22T07:45:15.882Z,12.40
2022-08-22T07:48:05.095Z,17.10
2022-08-22T07:51:02.333Z,15.00
2022-08-22T07:53:42.203Z,14.00
2022-08-22T07:56:19.328Z,14.40
2022-08-22T07:58:56.298Z,14.80
2022-08-22T08:01:28.876Z,15.40
2022-08-22T08:04:02.497Z,13.30
2022-08-22T08:06:33.690Z,18.90
2022-08-22T08:09:04.808Z,17.10
2022-08-22T08:11:41.254Z,14.50
2022-08-22T08:14:14.853Z,17.40
2022-08-22T08:17:02.375Z,17.90
2022-08-22T08:19:35.311Z,16.70
2022-08-22T08:22:07.152Z,15.00
2022-08-22T08:24:43.432Z,12.40
2022-08-22T08:27:41.450Z,16.10
2022-08-22T08:30:22.429Z,13.70
2022-08-22T08:33:24.780Z,21.00
2022-08-22T08:36:02.032Z,16.30
2022-08-22T08:38:43.647Z,16.70
2022-08-22T08:41:34.531Z,16.40
2022-08-22T08:44:22.330Z,17.00
2022-08-22T08:47:18.084Z,15.40
2022-08-22T08:50:12.430Z,13.10
2022-08-22T08:53:13.646Z,14.90
2022-08-22T08:56:23.181Z,23.20
2022-08-22T08:59:03.944Z,20.20
2022-08-22T09:02:13.664Z,12.60
2022-08-22T09:05:19.625Z,12.10
2022-08-22T09:08:11.887Z,17.30
2022-08-22T09:11:17.498Z,19.80
2022-08-22T09:14:15.978Z,19.50
2022-08-22T09:17:01.405Z,15.60
2022-08-22T09:20:02.559Z,20.80
2022-08-22T09:23:38.960Z,18.90
2022-08-22T09:26:30.851Z,14.90
2022-08-22T09:29:21.644Z,22.20
2022-08-22T09:32:03.952Z,14.80
2022-08-22T09:34:41.269Z,15.40
2022-08-22T09:37:21.195Z,13.90
2022-08-22T09:40:09.283Z,16.20
2022-08-22T09:42:55.716Z,13.50
2022-08-22T09:45:50.100Z,10.90
2022-08-22T09:48:38.597Z,14.90
2022-08-22T09:51:32.726Z,16.20
2022-08-22T09:54:31.475Z,14.40
2022-08-22T09:57:28.989Z,17.00
2022-08-22T10:00:31.676Z,13.00
2022-08-22T10:03:16.009Z,13.10
2022-08-22T10:05:58.679Z,11.10
2022-08-22T10:09:32.015Z,13.60
2022-08-22T10:12:12.796Z,10.10
2022-08-22T10:15:01.887Z,11.80
2022-08-22T10:17:47.495Z,14.40
2022-08-22T10:20:25.815Z,14.10
2022-08-22T10:23:11.399Z,12.20
2022-08-22T10:25:49.380Z,12.70
2022-08-22T10:28:39.347Z,11.90
2022-08-22T10:31:24.253Z,13.10
2022-08-22T10:34:09.884Z,14.40
2022-08-22T10:37:01.452Z,13.50
2022-08-22T10:39:43.997Z,14.70
2022-08-22T10:42:35.797Z,13.50
2022-08-22T10:48:29.197Z,12.50
2022-08-22T10:51:15.943Z,13.50
2022-08-22T10:54:54.059Z,11.90
2022-08-22T10:57:56.963Z,13.10
2022-08-22T11:00:56.246Z,11.90
2022-08-22T11:07:05.207Z,8.60
2022-08-22T11:14:31.989Z,9.30
2022-08-22T11:17:31.017Z,10.90
2022-08-22T11:20:22.336Z,10.80
2022-08-22T11:23:12.822Z,12.60
2022-08-22T11:26:05.098Z,9.40
2022-08-22T11:29:22.819Z,12.30
2022-08-22T11:32:57.485Z,11.50
2022-08-22T11:36:00.318Z,13.70
2022-08-22T11:39:37.414Z,10.90
2022-08-22T11:42:21.678Z,12.70
2022-08-22T11:45:06.866Z,13.90
2022-08-22T11:47:48.338Z,11.60
2022-08-22T11:50:58.349Z,12.30
2022-08-22T11:54:31.103Z,10.40
2022-08-22T12:02:19.386Z,12.30
2022-08-22T12:04:44.068Z,11.10
2022-08-22T12:10:43.938Z,11.30
2022-08-22T12:13:35.220Z,12.00
2022-08-22T12:16:21.256Z,11.00
2022-08-22T12:19:01.558Z,13.80
2022-08-22T12:22:07.374Z,12.40
2022-08-22T12:25:02.929Z,11.40
2022-08-22T12:47:09.256Z,13.70
2022-08-22T12:50:10.431Z,9.70
2022-08-22T12:54:05.283Z,10.40
2022-08-22T12:58:34.021Z,12.70
2022-08-22T13:08:05.908Z,9.10
2022-08-22T13:15:43.496Z,8.80
2022-08-22T13:18:33.953Z,8.50
2022-08-22T13:21:56.461Z,10.10
2022-08-22T13:29:42.987Z,9.70
2022-08-22T13:58:31.893Z,7.50
2022-08-22T14:01:43.287Z,7.40
2022-08-22T14:04:32.034Z,7.40
2022-08-22T14:07:28.654Z,9.00
2022-08-22T14:10:02.732Z,7.30
2022-08-22T14:12:50.219Z,9.80
2022-08-22T14:15:25.092Z,8.90
2022-08-22T14:18:03.513Z,8.80
2022-08-22T14:20:37.881Z,7.50
2022-08-22T14:23:14.276Z,6.80
2022-08-22T14:25:45.034Z,8.10
2022-08-22T14:28:27.506Z,6.50
2022-08-22T14:31:05.914Z,7.10
2022-08-22T14:33:56.495Z,10.20
2022-08-22T14:36:45.556Z,10.20
2022-08-22T14:39:28.839Z,8.70
2022-08-22T14:42:10.850Z,8.60
2022-08-22T14:45:01.891Z,6.80
2022-08-22T14:48:14.562Z,7.00
2022-08-22T14:50:53.075Z,9.70
2022-08-22T14:53:33.722Z,10.60
2022-08-22T14:56:09.554Z,8.20
2022-08-22T15:01:23.172Z,7.40
2022-08-22T15:04:01.850Z,6.50
2022-08-22T15:06:35.520Z,7.70
2022-08-22T15:09:08.456Z,7.70
2022-08-22T15:11:42.338Z,7.10
2022-08-22T15:14:22.546Z,7.90
2022-08-22T15:16:58.322Z,8.90
2022-08-22T15:19:42.052Z,8.90
2022-08-22T15:22:19.717Z,8.60
2022-08-22T15:24:57.635Z,7.70
2022-08-22T15:27:30.782Z,7.20
2022-08-22T15:30:03.360Z,7.90
2022-08-22T15:32:41.742Z,7.90
2022-08-22T15:35:15.615Z,7.70
2022-08-22T15:38:03.980Z,7.80
2022-08-22T15:40:40.584Z,7.60
2022-08-22T15:43:21.842Z,9.30
2022-08-22T15:46:09.929Z,9.30
2022-08-22T15:49:00.005Z,8.30
2022-08-22T15:51:41.138Z,10.60
2022-08-22T15:54:24.819Z,8.50
2022-08-22T15:57:22.800Z,8.90
2022-08-22T15:59:56.535Z,7.90
2022-08-22T16:02:33.299Z,8.40
2022-08-22T16:05:25.165Z,8.10
2022-08-22T16:08:09.820Z,8.90
2022-08-22T16:10:49.269Z,8.40
2022-08-22T16:13:49.010Z,7.90
2022-08-22T16:17:01.208Z,11.10
2022-08-22T16:19:34.012Z,7.60
2022-08-22T16:22:13.134Z,8.90
2022-08-22T16:25:13.848Z,9.50
2022-08-22T16:27:59.341Z,10.00
2022-08-22T16:30:36.777Z,8.50
2022-08-22T16:33:12.191Z,8.90
2022-08-22T16:36:23.898Z,6.60
2022-08-22T16:38:57.183Z,7.70
2022-08-22T16:41:39.784Z,6.30
2022-08-22T16:44:41.018Z,9.30
2022-08-22T16:47:14.966Z,9.80
2022-08-22T16:50:01.024Z,8.30
2022-08-22T16:52:55.543Z,7.00
2022-08-22T16:56:10.887Z,7.10
2022-08-22T16:59:09.680Z,8.30
2022-08-22T17:02:11.945Z,5.80
2022-08-22T17:04:56.406Z,6.30
2022-08-22T17:07:40.309Z,5.50
2022-08-22T17:10:38.678Z,8.50
2022-08-22T17:13:33.877Z,6.30
2022-08-22T17:16:28.285Z,7.40
2022-08-22T17:19:24.084Z,7.50
2022-08-22T17:21:57.590Z,5.80
2022-08-22T17:24:38.574Z,6.60
2022-08-22T17:27:24.823Z,5.60
2022-08-22T17:30:20.942Z,6.30
2022-08-22T17:36:55.143Z,7.50
2022-08-22T17:39:41.916Z,5.90
2022-08-22T17:42:35.203Z,8.70
2022-08-22T17:45:16.329Z,7.60
2022-08-22T17:47:52.062Z,8.90
2022-08-22T17:50:31.951Z,7.30
2022-08-22T17:53:12.254Z,5.60
2022-08-22T17:56:00.907Z,6.80
2022-08-22T17:58:43.825Z,8.80
2022-08-22T18:01:20.279Z,6.60
2022-08-22T18:04:01.306Z,7.10
2022-08-22T18:06:36.871Z,8.90
2022-08-22T18:09:25.912Z,7.70
2022-08-22T18:12:04.294Z,9.30
2022-08-22T18:14:41.308Z,7.10
2022-08-22T18:17:22.684Z,9.10
2022-08-22T18:19:59.058Z,9.20
2022-08-22T18:22:36.675Z,12.10
2022-08-22T18:28:27.187Z,7.30
2022-08-22T18:31:05.084Z,7.40
2022-08-22T18:35:28.925Z,6.10
2022-08-22T18:37:16.831Z,8.10
2022-08-22T18:40:06.141Z,7.10
2022-08-22T18:43:24.168Z,6.10
2022-08-22T18:46:29.672Z,8.00
2022-08-22T18:49:15.021Z,6.80
2022-08-22T18:52:21.498Z,6.90
2022-08-22T18:55:35.285Z,7.40
2022-08-22T19:02:21.501Z,8.20
2022-08-22T19:02:34.538Z,8.30
2022-08-22T19:05:34.814Z,8.30
2022-08-22T19:08:53.500Z,7.90
2022-08-22T19:11:46.582Z,7.80
2022-08-22T19:14:40.457Z,8.00
2022-08-22T19:17:37.098Z,8.40
2022-08-22T19:20:37.169Z,5.70
2022-08-22T19:23:45.561Z,8.00
2022-08-22T19:26:37.702Z,7.50
2022-08-22T19:29:45.706Z,6.80
2022-08-22T19:32:55.347Z,7.70
2022-08-22T19:35:29.456Z,13.40
2022-08-22T19:38:07.392Z,8.20
2022-08-22T19:40:58.616Z,10.20
2022-08-22T19:43:48.883Z,11.40
2022-08-22T19:46:37.276Z,7.90
2022-08-22T19:49:24.691Z,9.70
2022-08-22T19:52:17.831Z,10.90
2022-08-22T19:55:11.675Z,8.30
2022-08-22T19:58:03.930Z,8.50
2022-08-22T20:00:53.679Z,10.40
2022-08-22T20:03:43.201Z,7.40
2022-08-22T20:06:55.706Z,8.10
2022-08-22T20:10:42.565Z,7.20
2022-08-22T20:14:16.257Z,8.40
2022-08-22T20:17:16.305Z,6.80
2022-08-22T20:22:04.209Z,9.00
2022-08-22T20:23:30.612Z,7.00
2022-08-22T20:26:08.435Z,9.00
2022-08-22T20:28:45.228Z,8.20
2022-08-22T21:19:02.476Z,9.10
2022-08-22T21:25:34.730Z,8.90
2022-08-22T21:41:25.479Z,7.00
2022-08-22T21:42:38.240Z,10.10
2022-08-22T21:57:29.614Z,10.50
2022-08-22T22:00:48.853Z,10.90
2022-08-22T22:16:47.226Z,6.70
2022-08-22T22:19:21.430Z,8.80
2022-08-22T22:25:40.609Z,8.30
2022-08-22T22:35:46.549Z,9.00
2022-08-22T22:38:03.111Z,7.00
2022-08-22T22:40:56.760Z,9.80
2022-08-22T22:43:38.763Z,9.30
2022-08-22T22:46:13.379Z,9.20
2022-08-22T22:48:43.345Z,9.50
2022-08-22T22:51:16.174Z,9.50
2022-08-22T22:53:46.654Z,7.40
2022-08-22T22:56:39.555Z,11.30
2022-08-22T22:59:13.515Z,8.10
2022-08-22T23:02:03.508Z,7.60
2022-08-22T23:04:37.598Z,7.40
2022-08-22T23:07:11.719Z,8.20
2022-08-22T23:09:45.735Z,8.30
2022-08-22T23:12:17.463Z,8.30
2022-08-22T23:21:17.145Z,7.40
2022-08-22T23:30:40.109Z,7.30
